Time;durP1;ratioP1;P1;durP2;ratioP2;P2;SDS_P1;SDS_P2;PMS_P1;PMS_P2;Temp;Humidity;BMP_temperature;BMP_pressure;BME280_temperature;BME280_humidity;BME280_pressure;Samples;Min_cycle;Max_cycle;Signal;HPM_P1;HPM_P2
2023/03/06 00:01:38;;;;;;;1.60;1.50;;;15.70;51.90;;;;;;5113072;28;20649;-57
2023/03/06 00:04:03;;;;;;;1.15;1.02;;;15.60;51.90;;;;;;5113541;28;20176;-57
2023/03/06 00:06:29;;;;;;;1.30;1.20;;;15.60;51.90;;;;;;5113585;28;20165;-57
2023/03/06 00:08:54;;;;;;;1.35;1.25;;;15.60;51.90;;;;;;5112446;28;20236;-55
2023/03/06 00:11:20;;;;;;;0.75;0.73;;;15.60;51.90;;;;;;5113576;28;20685;-55
2023/03/06 00:13:45;;;;;;;1.70;1.20;;;15.60;51.90;;;;;;5113219;28;20233;-55
2023/03/06 00:16:11;;;;;;;1.52;1.20;;;15.60;51.90;;;;;;5112678;28;20631;-55
2023/03/06 00:18:36;;;;;;;1.40;1.30;;;15.60;51.90;;;;;;5113481;28;20205;-56
2023/03/06 00:21:06;;;;;;;1.10;1.00;;;15.60;51.90;;;;;;5112975;28;20177;-55
2023/03/06 00:23:31;;;;;;;1.10;1.10;;;15.60;51.90;;;;;;5112382;28;20274;-54
2023/03/06 00:25:57;;;;;;;1.25;1.15;;;15.50;51.80;;;;;;5112958;28;20176;-56
2023/03/06 00:28:22;;;;;;;1.27;1.10;;;15.50;51.90;;;;;;5113413;28;20259;-55
2023/03/06 00:30:48;;;;;;;1.83;1.38;;;15.50;51.90;;;;;;5112352;28;20185;-55
2023/03/06 00:33:13;;;;;;;1.50;1.40;;;15.60;51.90;;;;;;5113152;28;20169;-56
2023/03/06 00:35:39;;;;;;;1.13;1.02;;;15.50;51.90;;;;;;5115251;28;20184;-56
2023/03/06 00:38:05;;;;;;;1.20;1.10;;;15.50;51.90;;;;;;5116461;28;20177;-56
2023/03/06 00:40:30;;;;;;;1.10;1.00;;;15.50;51.80;;;;;;5117656;28;20177;-56
2023/03/06 00:42:56;;;;;;;1.30;1.20;;;15.50;51.70;;;;;;5117340;28;20515;-58
2023/03/06 00:45:21;;;;;;;1.40;1.30;;;15.40;51.70;;;;;;5116621;28;20658;-57
2023/03/06 00:47:47;;;;;;;2.08;1.33;;;15.40;51.80;;;;;;5117195;28;20169;-56
2023/03/06 00:50:12;;;;;;;1.80;1.50;;;15.50;51.80;;;;;;5116634;28;20210;-55
2023/03/06 00:52:38;;;;;;;2.45;1.05;;;15.40;51.80;;;;;;5117113;28;20234;-55
2023/03/06 00:55:04;;;;;;;1.05;1.00;;;15.40;51.70;;;;;;5117220;28;20178;-53
2023/03/06 00:57:30;;;;;;;0.93;0.90;;;15.40;51.80;;;;;;5116480;28;21018;-56
2023/03/06 00:59:55;;;;;;;1.75;1.00;;;15.40;51.70;;;;;;5116659;28;20295;-56
2023/03/06 01:02:21;;;;;;;1.70;0.98;;;15.40;51.80;;;;;;5117088;28;20193;-56
2023/03/06 01:04:46;;;;;;;0.90;0.90;;;15.40;51.80;;;;;;5115933;28;20205;-56
2023/03/06 01:07:12;;;;;;;1.23;1.13;;;15.40;51.80;;;;;;5116948;28;20181;-56
2023/03/06 01:09:37;;;;;;;0.98;0.98;;;15.40;51.80;;;;;;5117118;28;20177;-56
2023/03/06 01:12:03;;;;;;;1.65;1.00;;;15.40;51.80;;;;;;5115806;28;20166;-56
2023/03/06 01:14:30;;;;;;;1.02;0.95;;;15.30;51.70;;;;;;5117294;28;20188;-56
2023/03/06 01:16:55;;;;;;;1.65;1.10;;;15.30;51.70;;;;;;5116637;27;20172;-56
2023/03/06 01:19:21;;;;;;;1.20;1.10;;;15.30;51.60;;;;;;5116059;28;20313;-56
2023/03/06 01:21:46;;;;;;;1.02;1.02;;;15.30;51.60;;;;;;5116177;28;20307;-55
2023/03/06 01:24:12;;;;;;;1.45;1.35;;;15.30;51.60;;;;;;5116605;28;20173;-56
2023/03/06 01:26:37;;;;;;;1.40;1.30;;;15.30;51.60;;;;;;5116102;28;20184;-55
2023/03/06 01:29:03;;;;;;;1.35;1.20;;;15.30;51.70;;;;;;5116468;28;20169;-55
2023/03/06 01:31:31;;;;;;;1.42;0.80;;;15.30;51.70;;;;;;5116782;28;20656;-56
2023/03/06 01:33:57;;;;;;;1.10;1.10;;;15.30;52.40;;;;;;5115492;28;20169;-55
2023/03/06 01:36:22;;;;;;;1.10;1.00;;;15.30;51.60;;;;;;5116401;28;20256;-56
2023/03/06 01:38:48;;;;;;;1.08;0.95;;;15.30;51.70;;;;;;5116184;28;20264;-57
2023/03/06 01:41:14;;;;;;;1.10;1.00;;;15.30;51.70;;;;;;5115817;28;20256;-57
2023/03/06 01:43:42;;;;;;;1.48;1.38;;;15.30;51.70;;;;;;5116386;28;20195;-56
2023/03/06 01:46:16;;;;;;;0.90;0.90;;;15.20;51.60;;;;;;5115819;28;20631;-54
2023/03/06 01:48:42;;;;;;;1.10;1.00;;;15.20;51.70;;;;;;5115002;28;20166;-53
2023/03/06 01:51:08;;;;;;;1.13;1.05;;;15.20;52.20;;;;;;5114690;28;20643;-53
2023/03/06 01:53:33;;;;;;;0.85;0.85;;;15.20;51.60;;;;;;5115553;28;20169;-54
2023/03/06 01:55:59;;;;;;;1.00;0.98;;;15.20;51.60;;;;;;5115767;28;20181;-53
2023/03/06 01:58:24;;;;;;;1.25;1.15;;;15.20;51.60;;;;;;5114678;28;20194;-55
2023/03/06 02:00:50;;;;;;;1.20;0.90;;;15.20;51.60;;;;;;5113664;28;20203;-55
2023/03/06 02:03:19;;;;;;;1.17;1.08;;;15.20;51.60;;;;;;5115903;28;20170;-57
2023/03/06 02:05:44;;;;;;;0.93;0.93;;;15.10;51.50;;;;;;5114644;28;20264;-57
2023/03/06 02:08:11;;;;;;;1.40;1.20;;;15.10;51.50;;;;;;5097030;28;20260;-55
2023/03/06 02:10:36;;;;;;;1.10;1.00;;;15.20;51.60;;;;;;5097670;28;20247;-55
2023/03/06 02:13:05;;;;;;;1.30;1.20;;;15.10;51.50;;;;;;5115388;28;20177;-52
2023/03/06 02:15:30;;;;;;;1.30;1.17;;;15.20;51.60;;;;;;5114964;28;20173;-55
2023/03/06 02:17:56;;;;;;;1.00;1.00;;;15.10;51.50;;;;;;5114115;28;20180;-56
2023/03/06 02:20:49;;;;;;;1.00;0.98;;;15.10;51.50;;;;;;5097309;28;20209;-55
2023/03/06 02:23:18;;;;;;;1.23;1.10;;;15.10;51.60;;;;;;5110645;28;20227;-57
2023/03/06 02:25:45;;;;;;;1.10;1.10;;;15.10;51.60;;;;;;5115212;28;20237;-56
2023/03/06 02:28:12;;;;;;;1.05;1.05;;;15.10;51.50;;;;;;5093788;28;20186;-56
2023/03/06 02:30:41;;;;;;;1.00;0.95;;;15.10;51.50;;;;;;5094248;28;20177;-55
2023/03/06 02:33:06;;;;;;;1.20;1.10;;;15.10;51.50;;;;;;5094963;28;20208;-55
2023/03/06 02:35:33;;;;;;;1.85;1.05;;;15.10;51.50;;;;;;5095085;28;20640;-55
2023/03/06 02:38:02;;;;;;;1.23;1.05;;;15.10;51.60;;;;;;5094014;28;20174;-57
2023/03/06 02:40:27;;;;;;;1.45;1.08;;;15.10;51.50;;;;;;5110607;28;20286;-56
2023/03/06 02:42:57;;;;;;;1.27;1.13;;;15.00;51.50;;;;;;5093915;28;20653;-56
2023/03/06 02:45:29;;;;;;;1.40;1.20;;;15.00;51.50;;;;;;5094632;28;20239;-56
2023/03/06 02:47:54;;;;;;;1.75;1.08;;;15.00;51.50;;;;;;5109785;28;20181;-54
2023/03/06 02:50:20;;;;;;;0.90;0.90;;;15.00;51.50;;;;;;5094048;28;20173;-56
2023/03/06 02:52:45;;;;;;;1.17;1.08;;;15.00;51.50;;;;;;5094384;28;20170;-55
2023/03/06 02:55:11;;;;;;;1.33;1.15;;;15.00;51.50;;;;;;5094665;28;20176;-55
2023/03/06 02:57:36;;;;;;;1.13;0.98;;;15.00;51.50;;;;;;5093423;28;20184;-55
2023/03/06 03:00:02;;;;;;;1.70;1.20;;;15.00;51.50;;;;;;5094292;28;20209;-56
2023/03/06 03:02:28;;;;;;;1.50;1.10;;;15.00;51.50;;;;;;5095019;28;20527;-57
2023/03/06 03:04:53;;;;;;;1.40;1.30;;;15.00;51.50;;;;;;5093380;28;20181;-57
2023/03/06 03:07:19;;;;;;;1.40;1.30;;;15.00;51.50;;;;;;5094313;28;20170;-54
2023/03/06 03:09:44;;;;;;;1.23;1.13;;;14.90;51.50;;;;;;5094128;28;20260;-54
2023/03/06 03:12:10;;;;;;;1.40;1.30;;;15.00;51.50;;;;;;5093490;28;20205;-55
2023/03/06 03:14:38;;;;;;;1.25;1.15;;;14.90;51.50;;;;;;5094241;28;20556;-56
2023/03/06 03:17:04;;;;;;;1.35;1.17;;;14.90;51.50;;;;;;5093896;28;20535;-56
2023/03/06 03:19:29;;;;;;;1.13;1.02;;;14.90;51.40;;;;;;5093339;28;20214;-54
2023/03/06 03:21:55;;;;;;;1.73;1.02;;;14.90;51.50;;;;;;5093743;28;20217;-56
2023/03/06 03:24:20;;;;;;;1.67;1.42;;;14.90;51.40;;;;;;5094020;28;20173;-55
2023/03/06 03:26:46;;;;;;;1.60;1.50;;;14.90;51.40;;;;;;5092867;28;20185;-55
2023/03/06 03:29:11;;;;;;;1.67;1.17;;;14.90;51.40;;;;;;5094048;28;20181;-54
2023/03/06 03:31:37;;;;;;;1.33;1.23;;;14.90;51.50;;;;;;5094141;28;20182;-54
2023/03/06 03:34:02;;;;;;;1.30;1.20;;;14.90;52.10;;;;;;5092916;28;20673;-55
2023/03/06 03:36:28;;;;;;;1.48;1.38;;;14.90;51.50;;;;;;5093823;28;20285;-55
2023/03/06 03:38:54;;;;;;;1.60;1.50;;;14.90;52.10;;;;;;5093426;28;20205;-56
2023/03/06 03:41:19;;;;;;;1.40;1.30;;;14.90;51.50;;;;;;5093142;28;20215;-55
2023/03/06 03:43:48;;;;;;;1.65;1.30;;;14.80;51.40;;;;;;5093516;28;20170;-57
2023/03/06 03:46:13;;;;;;;2.08;1.40;;;14.90;51.50;;;;;;5093079;28;20165;-56
2023/03/06 03:48:39;;;;;;;1.27;1.20;;;14.80;51.40;;;;;;5093434;28;20218;-56
2023/03/06 03:51:07;;;;;;;1.50;1.40;;;14.80;51.40;;;;;;5093265;28;20223;-53
2023/03/06 03:53:33;;;;;;;1.17;1.08;;;14.80;51.40;;;;;;5092747;28;20197;-55
2023/03/06 03:55:58;;;;;;;1.60;1.50;;;14.80;51.40;;;;;;5092990;28;20190;-52
2023/03/06 03:58:24;;;;;;;1.67;1.58;;;14.80;51.40;;;;;;5093246;28;20210;-55
2023/03/06 04:00:49;;;;;;;1.85;1.55;;;14.80;51.60;;;;;;5092465;28;20191;-57
2023/03/06 04:03:15;;;;;;;2.65;1.80;;;14.80;51.40;;;;;;5093426;28;20228;-56
2023/03/06 04:05:40;;;;;;;1.63;1.52;;;14.80;51.40;;;;;;5093525;28;20238;-56
2023/03/06 04:08:06;;;;;;;1.70;1.60;;;14.80;51.40;;;;;;5092165;28;20178;-56
2023/03/06 04:10:33;;;;;;;1.50;1.40;;;14.80;51.50;;;;;;5092460;28;20715;-53
2023/03/06 04:12:58;;;;;;;1.55;1.45;;;14.80;51.50;;;;;;5093103;28;20196;-55
2023/03/06 04:15:24;;;;;;;1.92;1.80;;;14.80;51.40;;;;;;5092508;28;20640;-54
2023/03/06 04:17:49;;;;;;;2.10;1.90;;;14.70;51.40;;;;;;5092864;28;20632;-54
2023/03/06 04:20:18;;;;;;;1.88;1.77;;;14.80;51.40;;;;;;5092841;28;20210;-55
2023/03/06 04:22:43;;;;;;;1.60;1.50;;;14.70;51.40;;;;;;5091744;28;20228;-55
2023/03/06 04:25:09;;;;;;;1.98;1.88;;;14.70;51.40;;;;;;5093109;28;20177;-54
2023/03/06 04:27:34;;;;;;;2.10;1.80;;;14.70;52.00;;;;;;5093208;28;20170;-52
2023/03/06 04:30:00;;;;;;;1.90;1.80;;;14.70;51.40;;;;;;5092138;28;20611;-54
2023/03/06 04:32:26;;;;;;;2.30;1.83;;;14.60;51.40;;;;;;5092853;28;20166;-56
2023/03/06 04:34:51;;;;;;;2.03;1.65;;;14.70;51.50;;;;;;5092597;28;20230;-53
2023/03/06 04:37:21;;;;;;;2.13;1.80;;;14.70;51.40;;;;;;5092133;28;20204;-55
2023/03/06 04:39:47;;;;;;;2.08;1.88;;;14.70;51.40;;;;;;5092491;28;20221;-58
2023/03/06 04:42:13;;;;;;;1.83;1.73;;;14.70;51.40;;;;;;5092819;28;20166;-58
2023/03/06 04:44:38;;;;;;;1.77;1.67;;;14.70;51.40;;;;;;5092596;28;20181;-55
2023/03/06 04:47:04;;;;;;;1.63;1.52;;;14.70;51.40;;;;;;5092686;28;20644;-56
2023/03/06 04:49:29;;;;;;;1.65;1.50;;;14.60;51.30;;;;;;5092006;28;20659;-56
2023/03/06 04:51:55;;;;;;;2.42;2.15;;;14.60;51.30;;;;;;5092486;28;20216;-53
2023/03/06 04:54:20;;;;;;;1.75;1.65;;;14.70;51.40;;;;;;5092581;28;20184;-54
2023/03/06 04:56:46;;;;;;;1.52;1.42;;;14.60;51.30;;;;;;5091922;28;20180;-55
2023/03/06 04:59:11;;;;;;;1.70;1.60;;;14.60;51.30;;;;;;5092600;28;20676;-57
2023/03/06 05:01:37;;;;;;;1.45;1.35;;;14.60;51.30;;;;;;5092740;28;20174;-57
2023/03/06 05:04:03;;;;;;;1.65;1.55;;;14.60;51.30;;;;;;5091591;28;20185;-57
2023/03/06 05:06:28;;;;;;;1.75;1.65;;;14.60;51.30;;;;;;5092542;28;20181;-57
2023/03/06 05:08:54;;;;;;;1.65;1.55;;;14.60;51.40;;;;;;5092211;28;20170;-55
2023/03/06 05:11:19;;;;;;;2.08;1.60;;;14.60;51.30;;;;;;5092077;28;20545;-56
2023/03/06 05:13:45;;;;;;;1.58;1.48;;;14.60;51.30;;;;;;5092480;28;20170;-58
2023/03/06 05:16:10;;;;;;;1.67;1.52;;;14.60;51.30;;;;;;5092711;28;20534;-56
2023/03/06 05:18:36;;;;;;;1.75;1.65;;;14.60;51.30;;;;;;5091810;28;20664;-57
2023/03/06 05:21:01;;;;;;;2.40;1.67;;;14.60;51.20;;;;;;5093019;28;20704;-58
2023/03/06 05:23:28;;;;;;;2.83;2.05;;;14.60;51.30;;;;;;5096071;28;20714;-58
2023/03/06 05:25:53;;;;;;;2.10;1.60;;;14.60;51.30;;;;;;5095507;28;20216;-55
2023/03/06 05:28:19;;;;;;;1.33;1.23;;;14.50;51.30;;;;;;5096373;28;20177;-54
2023/03/06 05:30:44;;;;;;;1.83;1.73;;;14.50;51.60;;;;;;5095830;28;20178;-53
2023/03/06 05:33:10;;;;;;;2.38;1.90;;;14.50;51.20;;;;;;5095476;28;20178;-56
2023/03/06 05:35:35;;;;;;;1.90;1.60;;;14.50;51.30;;;;;;5096096;28;20660;-57
2023/03/06 05:38:01;;;;;;;1.50;1.40;;;14.50;51.30;;;;;;5095928;28;20538;-57
2023/03/06 05:40:27;;;;;;;2.53;1.83;;;14.50;51.30;;;;;;5095393;28;20213;-57
2023/03/06 05:42:52;;;;;;;1.83;1.70;;;14.50;51.30;;;;;;5095610;28;20264;-58
2023/03/06 05:45:18;;;;;;;1.42;1.33;;;14.50;51.30;;;;;;5096075;28;20181;-57
2023/03/06 05:47:43;;;;;;;1.60;1.50;;;14.50;51.30;;;;;;5094876;28;20275;-57
2023/03/06 05:50:09;;;;;;;1.42;1.33;;;14.50;51.30;;;;;;5095950;28;20178;-54
2023/03/06 05:52:36;;;;;;;1.85;1.67;;;14.50;51.30;;;;;;5094999;28;20226;-56
2023/03/06 05:55:02;;;;;;;1.90;1.80;;;14.40;51.30;;;;;;5111151;28;20196;-57
2023/03/06 05:57:27;;;;;;;1.50;1.40;;;14.50;52.10;;;;;;5095781;28;20636;-56
2023/03/06 05:59:53;;;;;;;1.65;1.55;;;14.50;51.40;;;;;;5094948;28;20216;-57
2023/03/06 06:02:18;;;;;;;1.95;1.85;;;14.50;51.30;;;;;;5095767;28;20166;-58
2023/03/06 06:04:44;;;;;;;1.50;1.40;;;14.50;51.20;;;;;;5095451;28;20713;-58
2023/03/06 06:07:12;;;;;;;2.45;1.77;;;14.60;51.20;;;;;;5094767;28;20170;-57
2023/03/06 06:09:38;;;;;;;1.98;1.60;;;14.60;51.10;;;;;;5111685;28;20189;-57
2023/03/06 06:12:03;;;;;;;1.15;1.13;;;14.80;51.00;;;;;;5095172;28;20185;-56
2023/03/06 06:14:29;;;;;;;1.27;1.17;;;14.90;50.80;;;;;;5094594;28;20519;-56
2023/03/06 06:16:55;;;;;;;1.25;1.15;;;15.00;51.30;;;;;;5110755;28;20632;-57
2023/03/06 06:19:21;;;;;;;1.40;1.20;;;15.20;50.50;;;;;;5095185;28;20213;-58
2023/03/06 06:21:48;;;;;;;1.45;1.17;;;15.40;51.00;;;;;;5094036;28;20581;-58
2023/03/06 06:24:14;;;;;;;1.60;1.50;;;15.40;50.20;;;;;;5095197;28;20541;-56
2023/03/06 06:26:40;;;;;;;1.35;1.15;;;15.60;50.00;;;;;;5095291;28;20169;-55
2023/03/06 06:29:05;;;;;;;1.40;1.30;;;15.70;49.80;;;;;;5094114;28;20537;-56
2023/03/06 06:31:31;;;;;;;1.05;1.00;;;15.80;49.70;;;;;;5095065;28;20234;-57
2023/03/06 06:33:56;;;;;;;1.50;1.20;;;15.90;49.60;;;;;;5094190;28;20212;-57
2023/03/06 06:36:22;;;;;;;1.05;1.00;;;15.90;49.50;;;;;;5094177;28;20174;-58
2023/03/06 06:38:47;;;;;;;1.13;1.08;;;15.90;49.50;;;;;;5094529;28;20213;-58
2023/03/06 06:41:13;;;;;;;1.20;1.10;;;15.90;49.50;;;;;;5094981;28;20307;-58
2023/03/06 06:43:39;;;;;;;1.10;1.00;;;16.00;49.50;;;;;;5094245;28;20678;-58
2023/03/06 06:46:04;;;;;;;1.27;1.00;;;16.00;49.40;;;;;;5094469;28;20644;-58
2023/03/06 06:48:30;;;;;;;1.33;1.17;;;16.00;49.40;;;;;;5094526;28;20696;-57
2023/03/06 06:50:58;;;;;;;1.23;1.13;;;16.10;49.40;;;;;;5093501;28;20683;-57
2023/03/06 06:53:24;;;;;;;1.45;1.10;;;16.10;49.40;;;;;;5094721;28;20178;-56
2023/03/06 06:55:49;;;;;;;0.93;0.93;;;16.10;49.40;;;;;;5094459;28;20181;-57
2023/03/06 06:58:16;;;;;;;1.50;1.40;;;16.10;49.40;;;;;;5093916;28;20537;-57
2023/03/06 07:00:42;;;;;;;0.90;0.90;;;16.20;49.40;;;;;;5094195;28;20207;-58
2023/03/06 07:03:11;;;;;;;1.02;0.93;;;16.20;49.30;;;;;;5093667;28;20647;-58
2023/03/06 07:05:37;;;;;;;0.93;0.93;;;16.30;49.30;;;;;;5109779;28;20178;-59
2023/03/06 07:08:02;;;;;;;0.95;0.88;;;16.50;49.10;;;;;;5094045;28;20597;-57
2023/03/06 07:10:28;;;;;;;1.40;0.90;;;16.80;48.80;;;;;;5093741;28;20710;-57
2023/03/06 07:12:55;;;;;;;1.10;1.00;;;17.10;48.30;;;;;;5093955;28;20173;-56
2023/03/06 07:15:21;;;;;;;1.40;0.70;;;17.10;48.00;;;;;;5094076;28;20178;-57
2023/03/06 07:17:47;;;;;;;0.80;0.80;;;17.30;47.80;;;;;;5093253;28;20189;-59
2023/03/06 07:20:12;;;;;;;0.90;0.90;;;17.40;47.80;;;;;;5093993;28;20201;-58
2023/03/06 07:22:38;;;;;;;0.90;0.90;;;17.40;47.60;;;;;;5093836;28;20291;-58
2023/03/06 07:25:04;;;;;;;1.15;0.95;;;17.50;47.60;;;;;;5093132;28;20249;-57
2023/03/06 07:27:30;;;;;;;0.85;0.80;;;17.60;47.40;;;;;;5094176;28;20197;-58
2023/03/06 07:29:55;;;;;;;0.98;0.88;;;17.60;47.40;;;;;;5093834;28;20632;-56
2023/03/06 07:32:21;;;;;;;0.90;0.85;;;17.60;47.40;;;;;;5093016;28;20170;-55
2023/03/06 07:34:46;;;;;;;0.60;0.60;;;17.60;47.40;;;;;;5093419;28;20178;-57
2023/03/06 07:37:12;;;;;;;0.73;0.70;;;17.60;47.40;;;;;;5093575;28;20261;-57
2023/03/06 07:39:38;;;;;;;0.82;0.82;;;17.60;47.60;;;;;;5092782;28;20304;-57
2023/03/06 07:42:03;;;;;;;0.68;0.68;;;17.60;47.60;;;;;;5093464;28;20197;-57
2023/03/06 07:44:29;;;;;;;0.70;0.70;;;17.50;47.70;;;;;;5092750;28;20588;-58
2023/03/06 07:46:54;;;;;;;1.05;0.95;;;17.50;47.70;;;;;;5092628;28;20170;-53
2023/03/06 07:49:20;;;;;;;0.88;0.80;;;17.40;47.70;;;;;;5093335;28;20628;-56
2023/03/06 07:51:46;;;;;;;0.60;0.60;;;17.40;47.90;;;;;;5093111;28;20180;-56
2023/03/06 07:54:11;;;;;;;0.60;0.60;;;17.40;48.00;;;;;;5092980;28;20260;-56
2023/03/06 07:56:37;;;;;;;0.82;0.82;;;17.40;48.00;;;;;;5093599;28;20170;-57
2023/03/06 07:59:02;;;;;;;1.10;0.70;;;17.40;48.10;;;;;;5093073;28;20206;-57
2023/03/06 08:01:28;;;;;;;0.77;0.63;;;17.40;48.10;;;;;;5092588;28;20315;-57
2023/03/06 08:03:53;;;;;;;1.05;0.63;;;17.30;48.10;;;;;;5092967;28;20252;-58
2023/03/06 08:06:23;;;;;;;0.63;0.63;;;17.30;48.20;;;;;;5092807;28;20178;-58
2023/03/06 08:08:50;;;;;;;0.50;0.50;;;17.30;48.30;;;;;;5093064;28;20177;-56
2023/03/06 08:11:16;;;;;;;0.50;0.50;;;17.30;48.30;;;;;;5093383;28;20231;-56
2023/03/06 08:13:42;;;;;;;0.40;0.40;;;17.20;48.40;;;;;;5092267;28;20201;-56
2023/03/06 08:16:07;;;;;;;0.77;0.77;;;17.20;49.10;;;;;;5093058;28;20193;-55
2023/03/06 08:18:33;;;;;;;0.68;0.68;;;17.10;48.60;;;;;;5093309;28;20699;-56
2023/03/06 08:21:05;;;;;;;0.52;0.52;;;17.00;48.80;;;;;;5092192;28;20182;-57
2023/03/06 08:23:31;;;;;;;0.73;0.60;;;17.00;48.90;;;;;;5092859;28;20232;-57
2023/03/06 08:25:57;;;;;;;0.60;0.60;;;17.00;48.90;;;;;;5092607;28;20177;-56
2023/03/06 08:28:23;;;;;;;0.60;0.60;;;17.00;48.90;;;;;;5092340;28;20213;-56
2023/03/06 08:30:48;;;;;;;0.50;0.50;;;17.10;49.00;;;;;;5092527;28;20205;-58
2023/03/06 08:33:14;;;;;;;1.00;0.55;;;17.10;49.00;;;;;;5100733;28;20221;-56
2023/03/06 08:35:40;;;;;;;0.60;0.60;;;17.10;48.90;;;;;;5112531;28;20177;-56
2023/03/06 08:38:05;;;;;;;0.65;0.50;;;17.10;48.90;;;;;;5113045;28;20212;-59
2023/03/06 08:40:31;;;;;;;0.77;0.63;;;17.10;48.90;;;;;;5113082;28;20214;-67
2023/03/06 08:42:56;;;;;;;0.40;0.40;;;17.20;49.60;;;;;;5112102;28;20256;-65
2023/03/06 08:45:22;;;;;;;1.52;0.70;;;17.30;49.00;;;;;;5113022;28;20173;-66
2023/03/06 08:47:47;;;;;;;0.93;0.70;;;17.30;49.10;;;;;;5112752;28;20525;-65
2023/03/06 08:50:13;;;;;;;0.60;0.55;;;17.30;49.20;;;;;;5112297;28;20537;-65
2023/03/06 08:52:38;;;;;;;2.08;1.00;;;17.30;49.30;;;;;;5112997;28;20657;-71
2023/03/06 08:55:04;;;;;;;1.17;0.75;;;17.40;49.40;;;;;;5112757;28;20635;-73
2023/03/06 08:57:30;;;;;;;1.90;0.70;;;17.40;49.50;;;;;;5115667;28;20199;-66
2023/03/06 08:59:55;;;;;;;1.30;0.40;;;17.40;49.70;;;;;;5116617;28;20207;-66
2023/03/06 09:02:21;;;;;;;1.67;0.70;;;17.40;50.00;;;;;;5117274;28;20176;-67
2023/03/06 09:04:46;;;;;;;1.42;0.50;;;17.30;49.70;;;;;;5116058;28;20169;-66
2023/03/06 09:07:12;;;;;;;1.05;0.68;;;17.30;49.90;;;;;;5117176;28;20173;-65
2023/03/06 09:09:37;;;;;;;0.60;0.60;;;17.20;50.00;;;;;;5115982;28;20260;-64
2023/03/06 09:12:03;;;;;;;0.90;0.60;;;17.10;50.10;;;;;;5116531;28;20313;-64
2023/03/06 09:14:30;;;;;;;0.82;0.52;;;17.10;50.20;;;;;;5115399;28;20245;-65
2023/03/06 09:16:55;;;;;;;2.25;0.70;;;17.10;50.30;;;;;;5115258;28;20628;-65
2023/03/06 09:19:21;;;;;;;0.60;0.60;;;17.00;50.50;;;;;;5116676;28;20270;-65
2023/03/06 09:21:47;;;;;;;0.52;0.43;;;16.90;50.60;;;;;;5116282;28;20247;-64
2023/03/06 09:24:13;;;;;;;0.77;0.60;;;16.90;50.70;;;;;;5115642;28;20181;-65
2023/03/06 09:26:39;;;;;;;0.52;0.52;;;16.80;50.70;;;;;;5116513;28;20169;-65
2023/03/06 09:29:04;;;;;;;1.25;0.70;;;16.80;50.80;;;;;;5116130;28;20264;-65
2023/03/06 09:31:30;;;;;;;0.73;0.50;;;16.80;50.90;;;;;;5115811;28;20232;-65
2023/03/06 09:33:56;;;;;;;1.67;0.70;;;16.80;50.90;;;;;;5116409;28;20207;-66
2023/03/06 09:36:22;;;;;;;2.10;0.63;;;16.80;50.90;;;;;;5116392;28;20208;-67
2023/03/06 09:38:48;;;;;;;0.40;0.40;;;16.80;50.90;;;;;;5115161;28;20292;-65
2023/03/06 09:41:28;;;;;;;2.25;0.63;;;16.80;50.90;;;;;;5116137;28;20185;-65
2023/03/06 09:43:57;;;;;;;0.60;0.60;;;16.70;51.10;;;;;;5115790;28;20173;-65
2023/03/06 09:46:29;;;;;;;1.65;0.50;;;16.70;51.20;;;;;;5114528;28;20635;-64
2023/03/06 09:49:01;;;;;;;1.70;0.57;;;16.70;51.20;;;;;;5115961;28;20211;-64
2023/03/06 09:51:32;;;;;;;1.50;0.43;;;16.70;51.20;;;;;;5116172;28;20177;-64
2023/03/06 09:54:12;;;;;;;0.55;0.40;;;16.60;51.10;;;;;;5097579;28;20256;-65
2023/03/06 09:56:37;;;;;;;2.17;0.50;;;16.70;51.20;;;;;;5114788;28;20631;-65
2023/03/06 09:59:11;;;;;;;1.25;0.60;;;16.70;51.10;;;;;;5115076;28;20264;-66
2023/03/06 10:01:38;;;;;;;0.43;0.40;;;16.80;51.00;;;;;;5098506;28;20177;-66
2023/03/06 10:04:26;;;;;;;1.50;0.60;;;16.80;50.90;;;;;;5115511;28;20177;-65
2023/03/06 10:06:58;;;;;;;0.57;0.52;;;16.80;50.80;;;;;;5114816;28;20189;-65
2023/03/06 10:09:28;;;;;;;0.50;0.50;;;16.90;50.80;;;;;;5115114;28;20302;-64
2023/03/06 10:12:03;;;;;;;0.68;0.63;;;16.90;50.80;;;;;;5114398;28;20180;-64
2023/03/06 10:14:37;;;;;;;1.45;0.60;;;16.80;51.00;;;;;;5096748;28;20585;-64
2023/03/06 10:17:03;;;;;;;1.65;0.43;;;16.70;51.10;;;;;;5098151;28;20699;-65
2023/03/06 10:19:34;;;;;;;1.63;0.60;;;16.70;51.30;;;;;;5114199;28;20311;-65
2023/03/06 10:22:32;;;;;;;1.17;0.40;;;16.60;51.30;;;;;;5114446;28;20225;-66
2023/03/06 10:25:26;;;;;;;0.50;0.50;;;16.60;51.50;;;;;;5114762;28;20181;-65
2023/03/06 10:28:14;;;;;;;0.65;0.50;;;16.50;51.50;;;;;;5114636;28;20181;-65
2023/03/06 10:31:08;;;;;;;0.55;0.55;;;16.50;51.50;;;;;;5114002;28;20606;-66
2023/03/06 10:33:39;;;;;;;0.68;0.57;;;16.40;51.50;;;;;;5115308;28;20177;-66
2023/03/06 10:36:15;;;;;;;1.90;0.50;;;16.50;51.60;;;;;;5114134;28;20646;-66
2023/03/06 10:38:41;;;;;;;1.45;0.50;;;16.50;51.50;;;;;;5115081;28;20636;-65
2023/03/06 10:41:11;;;;;;;1.23;0.60;;;16.60;51.40;;;;;;5114570;28;20169;-65
2023/03/06 10:43:38;;;;;;;0.40;0.40;;;16.60;51.40;;;;;;5114220;28;20177;-65
2023/03/06 10:46:04;;;;;;;0.43;0.43;;;16.60;51.40;;;;;;5113926;28;20246;-64
2023/03/06 10:48:31;;;;;;;0.47;0.40;;;16.60;51.60;;;;;;5114026;28;20196;-64
2023/03/06 10:51:21;;;;;;;0.43;0.43;;;16.50;51.50;;;;;;5114818;28;20222;-64
2023/03/06 10:54:12;;;;;;;0.50;0.40;;;16.50;51.50;;;;;;5114575;27;20634;-64
2023/03/06 10:56:39;;;;;;;0.68;0.50;;;16.50;51.50;;;;;;5114039;28;20169;-65
2023/03/06 10:59:08;;;;;;;0.43;0.43;;;16.50;51.50;;;;;;5114625;28;20219;-66
2023/03/06 11:01:33;;;;;;;1.48;0.38;;;16.50;51.50;;;;;;5114596;28;20533;-65
2023/03/06 11:04:24;;;;;;;0.40;0.40;;;16.50;51.40;;;;;;5113642;28;20173;-64
2023/03/06 11:07:05;;;;;;;0.80;0.57;;;16.50;51.40;;;;;;5113112;28;20238;-65
2023/03/06 11:09:32;;;;;;;1.13;0.50;;;16.50;51.40;;;;;;5113778;28;20181;-64
2023/03/06 11:12:23;;;;;;;0.65;0.50;;;16.50;51.20;;;;;;5114379;28;20173;-64
2023/03/06 11:15:13;;;;;;;1.17;0.40;;;16.60;51.10;;;;;;5113941;28;20647;-66
2023/03/06 11:17:51;;;;;;;1.05;0.50;;;16.60;51.10;;;;;;5113580;28;20651;-67
2023/03/06 11:20:24;;;;;;;0.45;0.30;;;16.60;51.10;;;;;;5114219;28;20212;-66
2023/03/06 11:23:11;;;;;;;1.17;0.60;;;16.60;51.00;;;;;;5113732;28;20216;-65
2023/03/06 11:25:43;;;;;;;1.63;0.95;;;16.70;51.10;;;;;;5082501;28;20184;-65
2023/03/06 11:28:22;;;;;;;0.75;0.50;;;16.70;51.10;;;;;;5113273;28;20173;-64
2023/03/06 11:31:14;;;;;;;1.65;0.43;;;16.70;51.20;;;;;;5112007;28;20176;-69
2023/03/06 11:33:55;;;;;;;0.68;0.40;;;16.70;51.20;;;;;;5114081;28;20172;-66
2023/03/06 11:36:37;;;;;;;3.22;0.70;;;16.80;51.30;;;;;;5112935;28;20256;-67
2023/03/06 11:39:10;;;;;;;1.17;0.40;;;16.80;51.30;;;;;;5112950;28;20272;-66
2023/03/06 11:41:51;;;;;;;1.67;0.50;;;16.90;51.30;;;;;;5112547;28;20173;-66
2023/03/06 11:44:35;;;;;;;1.27;0.40;;;16.80;51.40;;;;;;5112839;28;20181;-65
2023/03/06 11:47:22;;;;;;;3.67;0.57;;;16.80;51.30;;;;;;5097689;28;20572;-65
2023/03/06 11:49:55;;;;;;;1.75;0.40;;;16.70;51.40;;;;;;5111963;28;20260;-64
2023/03/06 11:52:45;;;;;;;1.58;0.50;;;16.70;51.40;;;;;;5111598;28;20173;-65
2023/03/06 11:55:43;;;;;;;0.60;0.43;;;16.80;51.40;;;;;;5096878;28;20573;-66
2023/03/06 11:58:24;;;;;;;0.98;0.40;;;16.70;51.40;;;;;;5098320;28;20187;-66
2023/03/06 12:01:12;;;;;;;0.80;0.50;;;16.70;51.30;;;;;;5113055;28;20188;-67
2023/03/06 12:04:19;;;;;;;2.35;0.45;;;16.70;51.20;;;;;;5111679;28;20182;-66
2023/03/06 12:07:07;;;;;;;2.05;0.60;;;16.70;51.10;;;;;;5112379;28;20635;-67
2023/03/06 12:09:54;;;;;;;2.70;0.77;;;16.70;51.10;;;;;;5112315;28;20173;-65
2023/03/06 12:12:45;;;;;;;2.00;0.50;;;16.70;51.10;;;;;;5113394;28;20181;-65
2023/03/06 12:15:18;;;;;;;1.63;0.60;;;16.60;51.20;;;;;;5084004;28;20623;-65
2023/03/06 12:18:02;;;;;;;1.33;0.50;;;16.70;52.00;;;;;;5112743;28;20173;-66
2023/03/06 12:20:54;;;;;;;1.45;0.47;;;16.70;51.20;;;;;;5112100;28;20671;-66
2023/03/06 12:23:41;;;;;;;1.25;0.35;;;16.70;51.20;;;;;;5111695;28;20221;-66
2023/03/06 12:26:12;;;;;;;3.20;0.50;;;16.70;51.10;;;;;;5112989;28;20176;-66
2023/03/06 12:28:37;;;;;;;2.60;0.32;;;16.70;51.30;;;;;;5111349;28;20181;-66
2023/03/06 12:31:36;;;;;;;0.30;0.30;;;16.70;51.40;;;;;;5112248;28;20284;-67
2023/03/06 12:34:40;;;;;;;0.75;0.50;;;16.70;51.40;;;;;;5110429;28;20184;-66
2023/03/06 12:37:28;;;;;;;1.85;0.50;;;16.70;51.50;;;;;;5111556;28;20189;-63
2023/03/06 12:40:27;;;;;;;3.08;0.77;;;16.70;51.40;;;;;;5112361;28;20250;-67
2023/03/06 12:43:05;;;;;;;3.17;0.60;;;16.70;51.40;;;;;;5111738;28;20169;-65
2023/03/06 12:45:35;;;;;;;2.00;0.82;;;16.70;51.40;;;;;;5113153;28;20226;-65
2023/03/06 12:48:01;;;;;;;2.97;0.60;;;16.70;52.00;;;;;;5112054;28;20220;-64
2023/03/06 12:50:38;;;;;;;3.33;0.82;;;16.60;51.40;;;;;;5112919;28;20529;-63
2023/03/06 12:53:11;;;;;;;2.13;0.82;;;16.60;51.50;;;;;;5112740;28;20172;-64
2023/03/06 12:55:39;;;;;;;3.40;0.93;;;16.50;51.50;;;;;;5110915;28;20173;-64
2023/03/06 12:58:27;;;;;;;0.95;0.73;;;16.50;51.50;;;;;;5111349;28;20247;-65